createdAt,value
2022-08-27T00:01:17.323Z,96015.00
2022-08-27T00:05:22.241Z,96021.00
2022-08-27T00:09:27.142Z,96028.00
2022-08-27T00:14:01.578Z,96034.00
2022-08-27T00:18:04.939Z,96023.00
2022-08-27T00:22:10.305Z,96024.00
2022-08-27T00:26:14.274Z,96016.00
2022-08-27T00:30:47.866Z,96019.00
2022-08-27T00:34:51.816Z,96020.00
2022-08-27T00:38:56.463Z,96016.00
2022-08-27T00:43:33.428Z,96016.00
2022-08-27T00:47:42.288Z,96019.00
2022-08-27T00:51:57.552Z,96019.00
2022-08-27T00:56:08.480Z,96028.00
2022-08-27T01:00:36.695Z,96028.00
2022-08-27T01:04:41.400Z,96032.00
2022-08-27T01:08:49.517Z,96035.00
2022-08-27T01:12:54.751Z,96033.00
2022-08-27T01:17:29.350Z,96032.00
2022-08-27T01:21:38.197Z,96036.00
2022-08-27T01:25:44.346Z,96039.00
2022-08-27T01:29:47.925Z,96034.00
2022-08-27T01:34:21.540Z,96034.00
2022-08-27T01:38:30.498Z,96047.00
2022-08-27T01:42:38.995Z,96049.00
2022-08-27T01:46:42.464Z,96048.00
2022-08-27T01:50:45.666Z,96044.00
2022-08-27T01:54:50.963Z,96047.00
2022-08-27T01:59:26.386Z,96045.00
2022-08-27T02:03:43.187Z,96045.00
2022-08-27T02:07:47.145Z,96047.00
2022-08-27T02:11:50.385Z,96043.00
2022-08-27T02:16:28.549Z,96040.00
2022-08-27T02:20:32.298Z,96036.00
2022-08-27T02:25:10.252Z,96030.00
2022-08-27T02:29:13.662Z,96037.00
2022-08-27T02:33:18.151Z,96034.00
2022-08-27T02:37:22.434Z,96043.00
2022-08-27T02:41:56.079Z,96044.00
2022-08-27T02:45:59.577Z,96048.00
2022-08-27T02:50:04.256Z,96050.00
2022-08-27T02:54:09.510Z,96043.00
2022-08-27T02:58:16.644Z,96046.00
2022-08-27T03:02:20.125Z,96040.00
2022-08-27T03:06:24.808Z,96029.00
2022-08-27T03:10:28.193Z,96029.00
2022-08-27T03:14:31.396Z,96035.00
2022-08-27T03:18:35.351Z,96029.00
2022-08-27T03:22:40.325Z,96030.00
2022-08-27T03:27:15.512Z,96028.00
2022-08-27T03:31:27.221Z,96030.00
2022-08-27T03:35:31.498Z,96025.00
2022-08-27T03:39:39.078Z,96038.00
2022-08-27T03:43:42.222Z,96041.00
2022-08-27T03:47:45.410Z,96027.00
2022-08-27T03:51:48.886Z,96021.00
2022-08-27T03:55:53.491Z,96019.00
2022-08-27T03:59:57.129Z,96015.00
2022-08-27T04:04:00.477Z,96018.00
2022-08-27T04:08:37.352Z,96012.00
2022-08-27T04:12:42.492Z,96007.00
2022-08-27T04:16:45.668Z,96014.00
2022-08-27T04:20:50.566Z,96012.00
2022-08-27T04:25:24.716Z,96010.00
2022-08-27T04:29:29.723Z,96017.00
2022-08-27T04:33:33.229Z,96017.00
2022-08-27T04:38:10.253Z,96023.00
2022-08-27T04:42:13.601Z,96026.00
2022-08-27T04:46:23.174Z,96021.00
2022-08-27T04:50:26.395Z,96027.00
2022-08-27T04:54:32.837Z,96025.00
2022-08-27T04:59:04.974Z,96028.00
2022-08-27T05:03:09.568Z,96030.00
2022-08-27T05:07:12.734Z,96034.00
2022-08-27T05:11:17.812Z,96040.00
2022-08-27T05:15:20.939Z,96036.00
2022-08-27T05:19:25.486Z,96033.00
2022-08-27T05:23:28.888Z,96038.00
2022-08-27T05:27:32.103Z,96035.00
2022-08-27T05:31:35.979Z,96031.00
2022-08-27T05:36:15.890Z,96030.00
2022-08-27T05:40:19.219Z,96036.00
2022-08-27T05:44:41.126Z,96035.00
2022-08-27T05:48:45.267Z,96041.00
2022-08-27T05:53:23.778Z,96047.00
2022-08-27T05:57:26.998Z,96043.00
2022-08-27T06:02:03.630Z,96039.00
2022-08-27T06:06:09.609Z,96041.00
2022-08-27T06:10:14.576Z,96037.00
2022-08-27T06:14:46.408Z,96031.00
2022-08-27T06:18:50.337Z,96034.00
2022-08-27T06:22:53.429Z,96029.00
2022-08-27T06:26:58.169Z,96034.00
2022-08-27T06:31:05.283Z,96031.00
2022-08-27T06:35:42.386Z,96029.00
2022-08-27T06:39:45.626Z,96035.00
2022-08-27T06:43:50.821Z,96033.00
2022-08-27T06:48:24.658Z,96044.00
2022-08-27T06:53:01.246Z,96037.00
2022-08-27T06:57:38.612Z,96052.00
2022-08-27T07:01:45.377Z,96055.00
2022-08-27T07:05:48.517Z,96063.00
2022-08-27T07:09:51.740Z,96071.00
2022-08-27T07:13:54.853Z,96077.00
2022-08-27T07:17:59.915Z,96068.00
2022-08-27T07:22:34.982Z,96080.00
2022-08-27T07:26:40.226Z,96084.00
2022-08-27T07:31:17.177Z,96088.00
2022-08-27T07:35:21.832Z,96086.00
2022-08-27T07:39:55.517Z,96089.00
2022-08-27T07:44:15.931Z,96085.00
2022-08-27T07:48:57.407Z,96095.00
2022-08-27T07:53:01.957Z,96097.00
2022-08-27T07:57:05.617Z,96089.00
2022-08-27T08:01:42.287Z,96091.00
2022-08-27T08:05:45.569Z,96097.00
2022-08-27T08:09:51.152Z,96097.00
2022-08-27T08:14:25.269Z,96102.00
2022-08-27T08:18:29.473Z,96107.00
2022-08-27T08:23:04.351Z,96116.00
2022-08-27T08:27:42.432Z,96110.00
2022-08-27T08:32:16.599Z,96116.00
2022-08-27T08:36:55.173Z,96114.00
2022-08-27T08:41:38.541Z,96113.00
2022-08-27T08:46:13.552Z,96117.00
2022-08-27T08:50:21.402Z,96118.00
2022-08-27T08:54:26.992Z,96106.00
2022-08-27T08:59:03.454Z,96112.00
2022-08-27T09:03:08.701Z,96113.00
2022-08-27T09:07:20.465Z,96103.00
2022-08-27T09:11:52.091Z,96116.00
2022-08-27T09:15:58.356Z,96118.00
2022-08-27T09:20:03.102Z,96119.00
2022-08-27T09:24:27.145Z,96126.00
2022-08-27T09:29:03.139Z,96122.00
2022-08-27T09:33:06.364Z,96125.00
2022-08-27T09:37:15.340Z,96125.00
2022-08-27T09:41:23.989Z,96117.00
2022-08-27T09:45:29.919Z,96111.00
2022-08-27T09:50:06.821Z,96106.00
2022-08-27T09:54:12.986Z,96114.00
2022-08-27T09:58:21.715Z,96102.00
2022-08-27T10:02:55.643Z,96102.00
2022-08-27T10:06:58.740Z,96104.00
2022-08-27T10:11:07.959Z,96105.00
2022-08-27T10:15:30.439Z,96106.00
2022-08-27T10:20:01.094Z,96107.00
2022-08-27T10:24:18.282Z,96105.00
2022-08-27T10:28:36.965Z,96101.00
2022-08-27T10:32:52.913Z,96103.00
2022-08-27T10:37:10.783Z,96104.00
2022-08-27T10:41:19.610Z,96106.00
2022-08-27T10:45:42.653Z,96108.00
2022-08-27T10:50:05.038Z,96118.00
2022-08-27T10:54:16.582Z,96107.00
2022-08-27T10:58:36.941Z,96106.00
2022-08-27T11:03:04.044Z,96107.00
2022-08-27T11:07:13.318Z,96103.00
2022-08-27T11:12:12.825Z,96115.00
2022-08-27T11:15:52.638Z,96111.00
2022-08-27T11:20:02.620Z,96108.00
2022-08-27T11:24:36.254Z,96106.00
2022-08-27T11:28:42.765Z,96110.00
2022-08-27T11:32:56.332Z,96115.00
2022-08-27T11:37:32.367Z,96120.00
2022-08-27T11:41:55.773Z,96095.00
2022-08-27T11:46:00.603Z,96102.00
2022-08-27T11:50:08.616Z,96118.00
2022-08-27T11:54:32.178Z,96115.00
2022-08-27T11:58:52.873Z,96124.00
2022-08-27T12:03:24.354Z,96131.00
2022-08-27T12:07:37.227Z,96134.00
2022-08-27T12:12:09.402Z,96135.00
2022-08-27T12:16:25.845Z,96125.00
2022-08-27T12:20:46.923Z,96126.00
2022-08-27T12:25:07.786Z,96122.00
2022-08-27T12:29:47.821Z,96114.00
2022-08-27T12:34:01.816Z,96110.00
2022-08-27T12:38:43.770Z,96104.00
2022-08-27T12:42:51.646Z,96096.00
2022-08-27T12:47:02.976Z,96096.00
2022-08-27T12:51:15.074Z,96090.00
2022-08-27T12:55:27.884Z,96088.00
2022-08-27T12:59:48.310Z,96090.00
2022-08-27T13:04:05.483Z,96088.00
2022-08-27T13:08:42.227Z,96083.00
2022-08-27T13:13:20.530Z,96086.00
2022-08-27T13:17:57.186Z,96087.00
2022-08-27T13:22:07.848Z,96081.00
2022-08-27T13:26:48.765Z,96079.00
2022-08-27T13:30:52.351Z,96078.00
2022-08-27T13:35:32.506Z,96078.00
2022-08-27T13:39:38.894Z,96078.00
2022-08-27T13:44:10.866Z,96075.00
2022-08-27T13:48:50.272Z,96064.00
2022-08-27T13:53:12.854Z,96061.00
2022-08-27T13:57:32.522Z,96050.00
2022-08-27T14:02:04.853Z,96053.00
2022-08-27T14:06:08.493Z,96057.00
2022-08-27T14:10:46.667Z,96060.00
2022-08-27T14:15:22.652Z,96066.00
2022-08-27T14:20:01.306Z,96064.00
2022-08-27T14:24:05.314Z,96060.00
2022-08-27T14:28:39.682Z,96063.00
2022-08-27T14:33:18.116Z,96059.00
2022-08-27T14:37:51.834Z,96057.00
2022-08-27T14:42:28.786Z,96062.00
2022-08-27T14:46:36.123Z,96061.00
2022-08-27T14:50:46.260Z,96055.00
2022-08-27T14:54:52.487Z,96064.00
2022-08-27T14:58:55.766Z,96064.00
2022-08-27T15:03:29.912Z,96057.00
2022-08-27T15:07:34.460Z,96055.00
2022-08-27T15:11:39.848Z,96057.00
2022-08-27T15:16:17.856Z,96064.00
2022-08-27T15:20:21.181Z,96061.00
2022-08-27T15:24:59.755Z,96056.00
2022-08-27T15:29:36.885Z,96049.00
2022-08-27T15:34:13.826Z,96055.00
2022-08-27T15:38:50.352Z,96077.00
2022-08-27T15:42:58.926Z,96067.00
2022-08-27T15:47:29.525Z,96068.00
2022-08-27T15:52:06.211Z,96067.00
2022-08-27T15:56:43.173Z,96065.00
2022-08-27T16:00:47.991Z,96067.00
2022-08-27T16:05:22.791Z,96061.00
2022-08-27T16:09:56.692Z,96061.00
2022-08-27T16:13:59.948Z,96057.00
2022-08-27T16:18:39.410Z,96057.00
2022-08-27T16:23:15.607Z,96059.00
2022-08-27T16:27:18.779Z,96063.00
2022-08-27T16:31:22.182Z,96059.00
2022-08-27T16:35:27.237Z,96060.00
2022-08-27T16:39:33.749Z,96061.00
2022-08-27T16:44:07.954Z,96059.00
2022-08-27T16:48:28.811Z,96054.00
2022-08-27T16:52:48.162Z,96065.00
2022-08-27T16:57:22.187Z,96069.00
2022-08-27T17:01:25.829Z,96069.00
2022-08-27T17:06:00.071Z,96072.00
2022-08-27T17:10:06.965Z,96074.00
2022-08-27T17:14:40.320Z,96074.00
2022-08-27T17:18:43.722Z,96078.00
2022-08-27T17:22:46.898Z,96083.00
2022-08-27T17:27:23.640Z,96080.00
2022-08-27T17:31:32.489Z,96080.00
2022-08-27T17:36:02.801Z,96079.00
2022-08-27T17:40:10.649Z,96081.00
2022-08-27T17:44:44.846Z,96087.00
2022-08-27T17:48:49.406Z,96091.00
2022-08-27T17:53:23.450Z,96086.00
2022-08-27T17:57:29.510Z,96094.00
2022-08-27T18:01:43.977Z,96092.00
2022-08-27T18:05:49.562Z,96107.00
2022-08-27T18:09:52.877Z,96112.00
2022-08-27T18:14:26.792Z,96122.00
2022-08-27T18:18:29.962Z,96128.00
2022-08-27T18:22:35.000Z,96129.00
2022-08-27T18:27:10.038Z,96140.00
2022-08-27T18:31:14.617Z,96130.00
2022-08-27T18:35:21.240Z,96127.00
2022-08-27T18:39:26.005Z,96132.00
2022-08-27T18:44:03.145Z,96127.00
2022-08-27T18:48:37.839Z,96132.00
2022-08-27T18:52:42.840Z,96140.00
2022-08-27T18:56:47.479Z,96152.00
2022-08-27T19:01:25.322Z,96157.00
2022-08-27T19:05:30.093Z,96159.00
2022-08-27T19:10:04.840Z,96171.00
2022-08-27T19:14:42.834Z,96164.00
2022-08-27T19:19:16.341Z,96168.00
2022-08-27T19:23:22.136Z,96171.00
2022-08-27T19:27:27.644Z,96185.00
2022-08-27T19:32:03.455Z,96182.00
2022-08-27T19:36:38.521Z,96183.00
2022-08-27T19:41:13.104Z,96184.00
2022-08-27T19:45:16.329Z,96185.00
2022-08-27T19:49:28.042Z,96184.00
2022-08-27T19:54:01.837Z,96185.00
2022-08-27T19:58:38.285Z,96175.00
2022-08-27T20:03:15.357Z,96177.00
2022-08-27T20:07:21.940Z,96173.00
2022-08-27T20:11:25.140Z,96175.00
2022-08-27T20:15:28.687Z,96174.00
2022-08-27T20:19:31.907Z,96185.00
2022-08-27T20:24:09.449Z,96185.00
2022-08-27T20:28:37.718Z,96180.00
2022-08-27T20:32:36.677Z,96170.00
2022-08-27T20:37:10.807Z,96166.00
2022-08-27T20:41:15.462Z,96164.00
2022-08-27T20:45:49.236Z,96163.00
2022-08-27T20:50:27.160Z,96174.00
2022-08-27T20:55:04.282Z,96174.00
2022-08-27T20:59:59.949Z,96166.00
2022-08-27T21:04:03.220Z,96171.00
2022-08-27T21:08:07.868Z,96166.00
2022-08-27T21:12:11.052Z,96169.00
2022-08-27T21:16:49.600Z,96169.00
2022-08-27T21:20:54.572Z,96169.00
2022-08-27T21:25:31.328Z,96174.00
2022-08-27T21:29:35.102Z,96180.00
2022-08-27T21:33:41.838Z,96176.00
2022-08-27T21:38:12.634Z,96172.00
2022-08-27T21:42:49.908Z,96179.00
2022-08-27T21:47:23.840Z,96171.00
2022-08-27T21:51:28.842Z,96170.00
2022-08-27T21:55:32.018Z,96182.00
2022-08-27T21:59:41.061Z,96178.00
2022-08-27T22:03:47.113Z,96182.00
2022-08-27T22:07:51.762Z,96188.00
2022-08-27T22:11:55.626Z,96175.00
2022-08-27T22:15:58.929Z,96180.00
2022-08-27T22:20:02.204Z,96188.00
2022-08-27T22:24:40.528Z,96186.00
2022-08-27T22:28:44.168Z,96192.00
2022-08-27T22:32:47.512Z,96195.00
2022-08-27T22:36:50.688Z,96193.00
2022-08-27T22:40:55.628Z,96196.00
2022-08-27T22:44:58.737Z,96198.00
2022-08-27T22:49:02.028Z,96210.00
2022-08-27T22:53:39.430Z,96202.00
2022-08-27T22:57:44.581Z,96203.00
2022-08-27T23:01:47.887Z,96198.00
2022-08-27T23:05:51.238Z,96206.00
2022-08-27T23:10:28.645Z,96202.00
2022-08-27T23:14:34.419Z,96188.00
2022-08-27T23:18:38.714Z,96186.00
2022-08-27T23:22:41.930Z,96182.00
2022-08-27T23:27:30.643Z,96186.00
2022-08-27T23:31:35.260Z,96186.00
2022-08-27T23:35:38.873Z,96186.00
2022-08-27T23:39:42.354Z,96186.00
2022-08-27T23:43:45.779Z,96183.00
2022-08-27T23:47:50.318Z,96184.00
2022-08-27T23:51:53.711Z,96184.00
2022-08-27T23:56:30.762Z,96188.00
